sensor_id;sensor_type;location;lat;lon;timestamp;pressure;altitude;pressure_sealevel;temperature;humidity
550;BME280;20066;48.764;9.176;2023-03-03T00:00:53;98404.44;;;6.46;56.41
550;BME280;20066;48.764;9.176;2023-03-03T00:03:23;98410.53;;;6.12;57.04
550;BME280;20066;48.764;9.176;2023-03-03T00:05:51;98404.50;;;6.50;55.20
550;BME280;20066;48.764;9.176;2023-03-03T00:08:20;98400.16;;;6.61;55.44
550;BME280;20066;48.764;9.176;2023-03-03T00:10:49;98404.44;;;6.46;56.29
550;BME280;20066;48.764;9.176;2023-03-03T00:13:20;98413.03;;;6.20;57.63
550;BME280;20066;48.764;9.176;2023-03-03T00:15:50;98409.78;;;6.46;55.44
550;BME280;20066;48.764;9.176;2023-03-03T00:18:21;98410.88;;;6.45;55.99
550;BME280;20066;48.764;9.176;2023-03-03T00:20:54;98410.16;;;6.29;57.06
550;BME280;20066;48.764;9.176;2023-03-03T00:23:27;98406.94;;;6.04;57.35
550;BME280;20066;48.764;9.176;2023-03-03T00:25:57;98406.63;;;5.74;58.83
550;BME280;20066;48.764;9.176;2023-03-03T00:28:28;98411.16;;;6.05;57.91
550;BME280;20066;48.764;9.176;2023-03-03T00:30:59;98409.00;;;5.17;60.78
550;BME280;20066;48.764;9.176;2023-03-03T00:33:30;98411.88;;;5.71;59.13
550;BME280;20066;48.764;9.176;2023-03-03T00:36:19;98404.75;;;5.75;58.79
550;BME280;20066;48.764;9.176;2023-03-03T00:38:49;98404.63;;;6.03;57.99
550;BME280;20066;48.764;9.176;2023-03-03T00:41:19;98407.06;;;5.92;58.01
550;BME280;20066;48.764;9.176;2023-03-03T00:43:49;98394.09;;;6.10;57.87
550;BME280;20066;48.764;9.176;2023-03-03T00:46:20;98404.72;;;5.91;57.68
550;BME280;20066;48.764;9.176;2023-03-03T00:48:49;98403.03;;;5.67;59.09
550;BME280;20066;48.764;9.176;2023-03-03T00:51:25;98393.75;;;5.61;59.48
550;BME280;20066;48.764;9.176;2023-03-03T00:53:54;98401.03;;;5.79;58.22
550;BME280;20066;48.764;9.176;2023-03-03T00:56:23;98397.41;;;5.88;58.20
550;BME280;20066;48.764;9.176;2023-03-03T00:58:51;98398.03;;;5.65;58.81
550;BME280;20066;48.764;9.176;2023-03-03T01:01:20;98401.81;;;5.80;58.69
550;BME280;20066;48.764;9.176;2023-03-03T01:03:48;98401.28;;;5.27;61.09
550;BME280;20066;48.764;9.176;2023-03-03T01:06:16;98402.16;;;5.63;58.21
550;BME280;20066;48.764;9.176;2023-03-03T01:08:43;98391.84;;;5.61;58.59
550;BME280;20066;48.764;9.176;2023-03-03T01:11:12;98391.69;;;5.54;58.79
550;BME280;20066;48.764;9.176;2023-03-03T01:13:44;98392.34;;;5.82;57.79
550;BME280;20066;48.764;9.176;2023-03-03T01:16:14;98387.53;;;5.41;59.88
550;BME280;20066;48.764;9.176;2023-03-03T01:18:44;98390.75;;;5.47;60.10
550;BME280;20066;48.764;9.176;2023-03-03T01:21:12;98397.34;;;5.37;59.09
550;BME280;20066;48.764;9.176;2023-03-03T01:23:39;98387.47;;;5.53;59.09
550;BME280;20066;48.764;9.176;2023-03-03T01:26:07;98395.88;;;5.71;58.21
550;BME280;20066;48.764;9.176;2023-03-03T01:28:36;98392.69;;;5.18;60.28
550;BME280;20066;48.764;9.176;2023-03-03T01:31:04;98387.13;;;4.95;61.05
550;BME280;20066;48.764;9.176;2023-03-03T01:33:41;98398.28;;;5.29;58.95
550;BME280;20066;48.764;9.176;2023-03-03T01:36:10;98395.44;;;5.22;59.54
550;BME280;20066;48.764;9.176;2023-03-03T01:38:38;98399.50;;;4.88;61.97
550;BME280;20066;48.764;9.176;2023-03-03T01:41:06;98398.56;;;4.96;60.69
550;BME280;20066;48.764;9.176;2023-03-03T01:43:34;98401.72;;;5.14;59.50
550;BME280;20066;48.764;9.176;2023-03-03T01:49:14;98392.53;;;4.31;62.23
550;BME280;20066;48.764;9.176;2023-03-03T01:51:52;98394.91;;;4.73;62.38
550;BME280;20066;48.764;9.176;2023-03-03T01:54:25;98395.38;;;4.90;60.51
550;BME280;20066;48.764;9.176;2023-03-03T01:56:57;98386.19;;;4.88;60.05
550;BME280;20066;48.764;9.176;2023-03-03T01:59:28;98383.06;;;4.86;60.98
550;BME280;20066;48.764;9.176;2023-03-03T02:01:58;98391.16;;;4.89;61.30
550;BME280;20066;48.764;9.176;2023-03-03T02:04:26;98385.34;;;4.31;61.62
550;BME280;20066;48.764;9.176;2023-03-03T02:07:00;98379.13;;;4.52;62.80
550;BME280;20066;48.764;9.176;2023-03-03T02:09:34;98378.19;;;4.60;61.25
550;BME280;20066;48.764;9.176;2023-03-03T02:12:07;98371.81;;;4.77;60.63
550;BME280;20066;48.764;9.176;2023-03-03T02:14:37;98379.63;;;4.85;60.90
550;BME280;20066;48.764;9.176;2023-03-03T02:17:05;98378.63;;;4.90;60.30
550;BME280;20066;48.764;9.176;2023-03-03T02:19:41;98378.47;;;4.71;60.99
550;BME280;20066;48.764;9.176;2023-03-03T02:22:16;98369.09;;;5.04;59.66
550;BME280;20066;48.764;9.176;2023-03-03T02:24:50;98361.22;;;4.80;60.55
550;BME280;20066;48.764;9.176;2023-03-03T02:27:20;98364.59;;;4.93;60.47
550;BME280;20066;48.764;9.176;2023-03-03T02:29:48;98360.94;;;4.42;60.72
550;BME280;20066;48.764;9.176;2023-03-03T02:32:17;98364.81;;;4.72;60.64
550;BME280;20066;48.764;9.176;2023-03-03T02:34:49;98363.97;;;4.68;60.74
550;BME280;20066;48.764;9.176;2023-03-03T02:37:18;98370.44;;;4.83;60.93
550;BME280;20066;48.764;9.176;2023-03-03T02:39:46;98359.59;;;4.76;60.59
550;BME280;20066;48.764;9.176;2023-03-03T02:42:17;98360.59;;;4.71;62.04
550;BME280;20066;48.764;9.176;2023-03-03T02:44:48;98363.34;;;4.47;61.35
550;BME280;20066;48.764;9.176;2023-03-03T02:47:16;98367.59;;;4.76;62.10
550;BME280;20066;48.764;9.176;2023-03-03T02:49:44;98374.31;;;5.01;61.34
550;BME280;20066;48.764;9.176;2023-03-03T02:52:12;98377.28;;;5.27;59.46
550;BME280;20066;48.764;9.176;2023-03-03T02:54:40;98379.63;;;5.29;59.32
550;BME280;20066;48.764;9.176;2023-03-03T02:57:08;98376.53;;;5.27;59.76
550;BME280;20066;48.764;9.176;2023-03-03T02:59:36;98378.75;;;5.25;60.29
550;BME280;20066;48.764;9.176;2023-03-03T03:02:05;98382.91;;;5.54;58.51
550;BME280;20066;48.764;9.176;2023-03-03T03:04:34;98382.19;;;5.57;58.50
550;BME280;20066;48.764;9.176;2023-03-03T03:07:02;98376.78;;;5.53;58.16
550;BME280;20066;48.764;9.176;2023-03-03T03:09:30;98377.97;;;5.56;58.72
550;BME280;20066;48.764;9.176;2023-03-03T03:11:58;98378.06;;;5.75;57.01
550;BME280;20066;48.764;9.176;2023-03-03T03:14:28;98381.78;;;5.39;59.52
550;BME280;20066;48.764;9.176;2023-03-03T03:16:55;98384.69;;;5.50;58.66
550;BME280;20066;48.764;9.176;2023-03-03T03:19:26;98379.97;;;5.27;58.96
550;BME280;20066;48.764;9.176;2023-03-03T03:21:55;98378.34;;;5.70;57.72
550;BME280;20066;48.764;9.176;2023-03-03T03:24:23;98378.63;;;6.00;56.31
550;BME280;20066;48.764;9.176;2023-03-03T03:26:51;98371.44;;;5.84;56.31
550;BME280;20066;48.764;9.176;2023-03-03T03:29:19;98381.00;;;5.70;57.40
550;BME280;20066;48.764;9.176;2023-03-03T03:31:46;98382.03;;;5.34;59.20
550;BME280;20066;48.764;9.176;2023-03-03T03:34:14;98373.94;;;5.77;57.71
550;BME280;20066;48.764;9.176;2023-03-03T03:36:43;98381.22;;;5.80;57.32
550;BME280;20066;48.764;9.176;2023-03-03T03:39:12;98379.56;;;6.07;56.47
550;BME280;20066;48.764;9.176;2023-03-03T03:41:40;98375.34;;;6.06;56.86
550;BME280;20066;48.764;9.176;2023-03-03T03:44:08;98384.53;;;6.09;55.82
550;BME280;20066;48.764;9.176;2023-03-03T03:46:35;98384.09;;;5.72;57.87
550;BME280;20066;48.764;9.176;2023-03-03T03:49:03;98383.34;;;6.06;56.34
550;BME280;20066;48.764;9.176;2023-03-03T03:51:31;98384.72;;;6.16;56.81
550;BME280;20066;48.764;9.176;2023-03-03T03:54:02;98382.72;;;6.13;57.28
550;BME280;20066;48.764;9.176;2023-03-03T03:56:30;98384.50;;;6.24;56.80
550;BME280;20066;48.764;9.176;2023-03-03T03:58:58;98385.63;;;6.23;56.69
550;BME280;20066;48.764;9.176;2023-03-03T04:01:26;98380.78;;;6.48;55.71
550;BME280;20066;48.764;9.176;2023-03-03T04:03:53;98379.78;;;5.67;57.52
550;BME280;20066;48.764;9.176;2023-03-03T04:06:21;98374.94;;;5.89;58.04
550;BME280;20066;48.764;9.176;2023-03-03T04:08:49;98378.84;;;5.75;59.48
550;BME280;20066;48.764;9.176;2023-03-03T04:11:18;98377.31;;;5.94;58.08
550;BME280;20066;48.764;9.176;2023-03-03T04:13:46;98378.81;;;5.91;57.15
550;BME280;20066;48.764;9.176;2023-03-03T04:16:13;98382.97;;;6.23;57.06
550;BME280;20066;48.764;9.176;2023-03-03T04:18:42;98382.28;;;6.46;56.48
550;BME280;20066;48.764;9.176;2023-03-03T04:21:13;98385.22;;;6.60;56.58
550;BME280;20066;48.764;9.176;2023-03-03T04:23:41;98379.53;;;6.61;56.13
550;BME280;20066;48.764;9.176;2023-03-03T04:26:09;98383.75;;;6.43;57.17
550;BME280;20066;48.764;9.176;2023-03-03T04:28:38;98385.22;;;6.79;55.84
550;BME280;20066;48.764;9.176;2023-03-03T04:31:05;98395.50;;;6.96;54.75
550;BME280;20066;48.764;9.176;2023-03-03T04:33:33;98395.16;;;6.59;56.04
550;BME280;20066;48.764;9.176;2023-03-03T04:36:02;98401.72;;;6.81;55.67
550;BME280;20066;48.764;9.176;2023-03-03T04:38:30;98394.25;;;6.90;55.18
550;BME280;20066;48.764;9.176;2023-03-03T04:40:57;98393.22;;;6.79;54.96
550;BME280;20066;48.764;9.176;2023-03-03T04:43:25;98393.28;;;5.74;57.88
550;BME280;20066;48.764;9.176;2023-03-03T04:45:54;98396.84;;;6.13;57.54
550;BME280;20066;48.764;9.176;2023-03-03T04:48:22;98394.13;;;6.29;57.39
550;BME280;20066;48.764;9.176;2023-03-03T04:50:50;98404.00;;;6.63;56.27
550;BME280;20066;48.764;9.176;2023-03-03T04:53:18;98404.03;;;6.83;55.89
550;BME280;20066;48.764;9.176;2023-03-03T04:55:45;98409.00;;;6.65;56.30
550;BME280;20066;48.764;9.176;2023-03-03T04:58:13;98407.88;;;6.66;56.19
550;BME280;20066;48.764;9.176;2023-03-03T05:00:41;98410.06;;;6.60;56.65
550;BME280;20066;48.764;9.176;2023-03-03T05:03:11;98414.13;;;6.00;57.77
550;BME280;20066;48.764;9.176;2023-03-03T05:05:39;98419.25;;;6.09;56.75
550;BME280;20066;48.764;9.176;2023-03-03T05:08:07;98404.41;;;5.61;58.91
550;BME280;20066;48.764;9.176;2023-03-03T05:10:35;98418.50;;;5.93;57.77
550;BME280;20066;48.764;9.176;2023-03-03T05:13:03;98414.19;;;5.88;56.76
550;BME280;20066;48.764;9.176;2023-03-03T05:15:31;98413.84;;;5.90;56.37
550;BME280;20066;48.764;9.176;2023-03-03T05:17:59;98409.19;;;4.80;59.65
550;BME280;20066;48.764;9.176;2023-03-03T05:20:28;98416.44;;;5.86;57.96
550;BME280;20066;48.764;9.176;2023-03-03T05:22:56;98416.28;;;6.30;56.49
550;BME280;20066;48.764;9.176;2023-03-03T05:25:27;98418.00;;;6.76;53.98
550;BME280;20066;48.764;9.176;2023-03-03T05:27:54;98418.28;;;6.17;55.71
550;BME280;20066;48.764;9.176;2023-03-03T05:30:22;98416.97;;;6.27;55.08
550;BME280;20066;48.764;9.176;2023-03-03T05:32:50;98425.16;;;6.53;54.04
550;BME280;20066;48.764;9.176;2023-03-03T05:35:18;98421.19;;;6.28;56.03
550;BME280;20066;48.764;9.176;2023-03-03T05:37:47;98422.22;;;6.58;54.54
550;BME280;20066;48.764;9.176;2023-03-03T05:40:15;98422.59;;;6.21;55.40
550;BME280;20066;48.764;9.176;2023-03-03T05:42:43;98425.66;;;6.58;53.90
550;BME280;20066;48.764;9.176;2023-03-03T05:45:11;98428.38;;;6.43;54.33
550;BME280;20066;48.764;9.176;2023-03-03T05:47:39;98436.41;;;6.08;56.46
550;BME280;20066;48.764;9.176;2023-03-03T05:50:08;98442.09;;;6.06;56.47
550;BME280;20066;48.764;9.176;2023-03-03T05:52:37;98437.47;;;6.38;55.13
550;BME280;20066;48.764;9.176;2023-03-03T05:55:08;98450.59;;;6.12;54.49
550;BME280;20066;48.764;9.176;2023-03-03T05:57:36;98435.00;;;6.49;54.31
550;BME280;20066;48.764;9.176;2023-03-03T06:00:05;98444.06;;;5.94;55.31
550;BME280;20066;48.764;9.176;2023-03-03T06:02:34;98447.41;;;6.06;55.34
550;BME280;20066;48.764;9.176;2023-03-03T06:05:02;98450.34;;;5.85;55.37
550;BME280;20066;48.764;9.176;2023-03-03T06:07:30;98448.66;;;5.77;56.24
550;BME280;20066;48.764;9.176;2023-03-03T06:09:58;98446.66;;;5.74;56.02
550;BME280;20066;48.764;9.176;2023-03-03T06:12:27;98450.34;;;5.85;55.87
550;BME280;20066;48.764;9.176;2023-03-03T06:14:54;98453.03;;;5.85;55.66
550;BME280;20066;48.764;9.176;2023-03-03T06:17:22;98448.44;;;5.86;55.37
550;BME280;20066;48.764;9.176;2023-03-03T06:19:50;98450.59;;;5.49;55.68
550;BME280;20066;48.764;9.176;2023-03-03T06:22:18;98455.78;;;5.73;54.23
550;BME280;20066;48.764;9.176;2023-03-03T06:24:46;98467.66;;;5.60;54.28
550;BME280;20066;48.764;9.176;2023-03-03T06:27:13;98464.28;;;4.64;56.83
550;BME280;20066;48.764;9.176;2023-03-03T06:29:43;98463.78;;;5.58;54.72
550;BME280;20066;48.764;9.176;2023-03-03T06:32:10;98457.31;;;4.59;56.31
550;BME280;20066;48.764;9.176;2023-03-03T06:34:39;98463.34;;;5.56;55.20
550;BME280;20066;48.764;9.176;2023-03-03T06:37:07;98471.13;;;5.92;53.65
550;BME280;20066;48.764;9.176;2023-03-03T06:39:35;98473.56;;;5.10;54.45
550;BME280;20066;48.764;9.176;2023-03-03T06:42:03;98481.97;;;5.40;54.69
550;BME280;20066;48.764;9.176;2023-03-03T06:44:31;98481.84;;;5.64;54.23
550;BME280;20066;48.764;9.176;2023-03-03T06:47:01;98483.91;;;5.71;53.56
550;BME280;20066;48.764;9.176;2023-03-03T06:49:29;98476.19;;;5.22;55.95
550;BME280;20066;48.764;9.176;2023-03-03T06:51:58;98482.69;;;5.37;54.87
550;BME280;20066;48.764;9.176;2023-03-03T06:54:28;98480.41;;;5.98;53.46
550;BME280;20066;48.764;9.176;2023-03-03T06:56:58;98489.19;;;5.67;53.73
550;BME280;20066;48.764;9.176;2023-03-03T06:59:27;98484.56;;;5.36;53.32
550;BME280;20066;48.764;9.176;2023-03-03T07:01:55;98489.25;;;5.55;52.44
550;BME280;20066;48.764;9.176;2023-03-03T07:04:27;98493.66;;;5.95;52.54
550;BME280;20066;48.764;9.176;2023-03-03T07:06:57;98497.38;;;6.06;52.94
550;BME280;20066;48.764;9.176;2023-03-03T07:09:27;98504.09;;;6.00;52.50
550;BME280;20066;48.764;9.176;2023-03-03T07:12:00;98497.47;;;6.60;51.44
550;BME280;20066;48.764;9.176;2023-03-03T07:14:28;98503.94;;;6.08;52.15
550;BME280;20066;48.764;9.176;2023-03-03T07:16:59;98512.94;;;6.35;52.11
550;BME280;20066;48.764;9.176;2023-03-03T07:19:32;98510.78;;;6.25;51.61
550;BME280;20066;48.764;9.176;2023-03-03T07:22:12;98514.56;;;6.75;50.55
550;BME280;20066;48.764;9.176;2023-03-03T07:24:43;98518.09;;;7.14;50.13
550;BME280;20066;48.764;9.176;2023-03-03T07:27:16;98511.03;;;7.44;49.51
550;BME280;20066;48.764;9.176;2023-03-03T07:29:47;98508.22;;;6.98;49.85
550;BME280;20066;48.764;9.176;2023-03-03T07:32:25;98510.22;;;6.51;50.82
550;BME280;20066;48.764;9.176;2023-03-03T07:34:55;98509.66;;;6.77;50.02
550;BME280;20066;48.764;9.176;2023-03-03T07:37:29;98510.91;;;7.37;48.98
550;BME280;20066;48.764;9.176;2023-03-03T07:39:59;98507.59;;;7.66;48.08
550;BME280;20066;48.764;9.176;2023-03-03T07:42:33;98517.16;;;7.25;49.39
550;BME280;20066;48.764;9.176;2023-03-03T07:45:22;98517.44;;;7.20;48.73
550;BME280;20066;48.764;9.176;2023-03-03T07:47:52;98511.25;;;7.77;47.64
550;BME280;20066;48.764;9.176;2023-03-03T07:50:25;98516.19;;;7.98;47.33
550;BME280;20066;48.764;9.176;2023-03-03T07:52:55;98520.84;;;7.79;47.41
550;BME280;20066;48.764;9.176;2023-03-03T07:55:32;98521.59;;;7.18;48.05
550;BME280;20066;48.764;9.176;2023-03-03T07:58:20;98518.72;;;7.46;47.70
550;BME280;20066;48.764;9.176;2023-03-03T08:03:55;98526.72;;;8.33;46.85
550;BME280;20066;48.764;9.176;2023-03-03T08:06:40;98527.59;;;8.18;45.82
550;BME280;20066;48.764;9.176;2023-03-03T08:09:29;98527.44;;;7.85;46.88
550;BME280;20066;48.764;9.176;2023-03-03T08:12:01;98533.31;;;8.39;46.42
550;BME280;20066;48.764;9.176;2023-03-03T08:14:39;98538.50;;;6.52;50.72
550;BME280;20066;48.764;9.176;2023-03-03T08:17:13;98539.00;;;7.47;47.97
550;BME280;20066;48.764;9.176;2023-03-03T08:19:48;98530.78;;;8.50;46.88
550;BME280;20066;48.764;9.176;2023-03-03T08:22:25;98530.78;;;8.24;47.01
550;BME280;20066;48.764;9.176;2023-03-03T08:24:57;98534.28;;;9.07;44.29
550;BME280;20066;48.764;9.176;2023-03-03T08:27:25;98529.66;;;9.74;43.24
550;BME280;20066;48.764;9.176;2023-03-03T08:29:54;98537.72;;;11.42;39.50
550;BME280;20066;48.764;9.176;2023-03-03T08:32:22;98527.81;;;12.95;37.08
550;BME280;20066;48.764;9.176;2023-03-03T08:34:51;98534.66;;;16.58;31.25
550;BME280;20066;48.764;9.176;2023-03-03T08:37:20;98534.38;;;17.35;28.79
550;BME280;20066;48.764;9.176;2023-03-03T08:39:48;98541.63;;;17.94;28.34
550;BME280;20066;48.764;9.176;2023-03-03T08:42:17;98534.66;;;10.20;39.43
550;BME280;20066;48.764;9.176;2023-03-03T08:44:45;98536.53;;;16.14;31.18
550;BME280;20066;48.764;9.176;2023-03-03T08:47:13;98539.63;;;15.86;30.52
550;BME280;20066;48.764;9.176;2023-03-03T08:49:42;98541.59;;;15.55;31.60
550;BME280;20066;48.764;9.176;2023-03-03T08:52:12;98532.44;;;18.24;27.97
550;BME280;20066;48.764;9.176;2023-03-03T08:54:41;98540.44;;;11.49;37.40
550;BME280;20066;48.764;9.176;2023-03-03T08:57:12;98545.69;;;13.58;34.97
550;BME280;20066;48.764;9.176;2023-03-03T08:59:39;98548.84;;;15.65;32.62
550;BME280;20066;48.764;9.176;2023-03-03T09:02:07;98550.38;;;19.82;26.24
550;BME280;20066;48.764;9.176;2023-03-03T09:04:35;98555.00;;;21.26;23.77
550;BME280;20066;48.764;9.176;2023-03-03T09:07:03;98562.50;;;16.39;29.62
550;BME280;20066;48.764;9.176;2023-03-03T09:09:31;98562.88;;;12.88;34.64
550;BME280;20066;48.764;9.176;2023-03-03T09:12:12;98562.06;;;16.44;30.34
550;BME280;20066;48.764;9.176;2023-03-03T09:14:42;98567.25;;;10.59;38.24
550;BME280;20066;48.764;9.176;2023-03-03T09:17:24;98574.78;;;13.22;36.07
550;BME280;20066;48.764;9.176;2023-03-03T09:19:54;98572.56;;;12.64;35.18
550;BME280;20066;48.764;9.176;2023-03-03T09:22:25;98567.44;;;14.58;33.94
550;BME280;20066;48.764;9.176;2023-03-03T09:24:56;98578.47;;;16.37;30.04
550;BME280;20066;48.764;9.176;2023-03-03T09:27:29;98580.00;;;17.83;28.48
550;BME280;20066;48.764;9.176;2023-03-03T09:30:00;98577.38;;;20.18;25.17
550;BME280;20066;48.764;9.176;2023-03-03T09:32:33;98588.84;;;20.00;24.59
550;BME280;20066;48.764;9.176;2023-03-03T09:35:32;98591.31;;;19.82;24.98
550;BME280;20066;48.764;9.176;2023-03-03T09:38:14;98590.84;;;16.38;29.45
550;BME280;20066;48.764;9.176;2023-03-03T09:41:00;98582.25;;;17.68;28.27
550;BME280;20066;48.764;9.176;2023-03-03T09:43:41;98576.81;;;18.04;27.36
550;BME280;20066;48.764;9.176;2023-03-03T09:46:18;98578.69;;;15.65;30.54
550;BME280;20066;48.764;9.176;2023-03-03T09:49:01;98573.34;;;15.24;30.86
550;BME280;20066;48.764;9.176;2023-03-03T09:51:43;98576.06;;;15.24;31.56
550;BME280;20066;48.764;9.176;2023-03-03T09:54:25;98582.13;;;16.23;30.54
550;BME280;20066;48.764;9.176;2023-03-03T09:57:06;98574.00;;;15.96;30.42
550;BME280;20066;48.764;9.176;2023-03-03T09:59:47;98570.84;;;17.18;28.93
550;BME280;20066;48.764;9.176;2023-03-03T10:02:29;98570.31;;;14.81;32.50
550;BME280;20066;48.764;9.176;2023-03-03T10:05:15;98567.38;;;15.97;30.65
550;BME280;20066;48.764;9.176;2023-03-03T10:07:54;98579.06;;;15.94;30.83
550;BME280;20066;48.764;9.176;2023-03-03T10:10:37;98568.56;;;13.32;34.66
550;BME280;20066;48.764;9.176;2023-03-03T10:13:21;98573.50;;;13.55;34.31
550;BME280;20066;48.764;9.176;2023-03-03T10:16:09;98572.94;;;12.30;36.92
550;BME280;20066;48.764;9.176;2023-03-03T10:18:45;98579.91;;;16.18;31.31
550;BME280;20066;48.764;9.176;2023-03-03T10:21:22;98566.28;;;14.00;32.98
550;BME280;20066;48.764;9.176;2023-03-03T10:23:53;98587.09;;;11.64;38.38
550;BME280;20066;48.764;9.176;2023-03-03T10:26:41;98576.84;;;9.38;42.49
550;BME280;20066;48.764;9.176;2023-03-03T10:29:37;98571.75;;;10.99;40.91
550;BME280;20066;48.764;9.176;2023-03-03T10:32:33;98573.84;;;11.27;40.09
550;BME280;20066;48.764;9.176;2023-03-03T10:35:29;98567.69;;;8.83;45.60
550;BME280;20066;48.764;9.176;2023-03-03T10:41:29;98577.91;;;13.06;37.03
550;BME280;20066;48.764;9.176;2023-03-03T10:47:27;98574.84;;;13.91;34.54
550;BME280;20066;48.764;9.176;2023-03-03T10:50:09;98580.03;;;14.75;34.17
550;BME280;20066;48.764;9.176;2023-03-03T10:52:43;98577.03;;;18.30;29.47
550;BME280;20066;48.764;9.176;2023-03-03T10:58:26;98571.25;;;15.39;32.81
550;BME280;20066;48.764;9.176;2023-03-03T11:01:05;98563.66;;;12.99;36.78
550;BME280;20066;48.764;9.176;2023-03-03T11:03:47;98567.91;;;13.90;35.12
550;BME280;20066;48.764;9.176;2023-03-03T11:06:21;98564.22;;;13.56;34.72
550;BME280;20066;48.764;9.176;2023-03-03T11:08:55;98567.88;;;10.93;40.96
550;BME280;20066;48.764;9.176;2023-03-03T11:11:34;98568.06;;;11.25;39.23
550;BME280;20066;48.764;9.176;2023-03-03T11:14:09;98566.72;;;11.66;40.07
550;BME280;20066;48.764;9.176;2023-03-03T11:16:49;98561.66;;;9.53;43.03
550;BME280;20066;48.764;9.176;2023-03-03T11:19:40;98573.94;;;9.54;44.01
550;BME280;20066;48.764;9.176;2023-03-03T11:22:40;98570.66;;;9.67;43.45
550;BME280;20066;48.764;9.176;2023-03-03T11:25:20;98578.06;;;9.14;46.51
550;BME280;20066;48.764;9.176;2023-03-03T11:28:10;98572.22;;;10.50;42.66
550;BME280;20066;48.764;9.176;2023-03-03T11:30:53;98577.84;;;9.97;43.84
550;BME280;20066;48.764;9.176;2023-03-03T11:33:33;98571.06;;;8.08;47.93
550;BME280;20066;48.764;9.176;2023-03-03T11:36:11;98574.88;;;8.07;48.32
550;BME280;20066;48.764;9.176;2023-03-03T11:38:47;98578.84;;;8.62;46.93
550;BME280;20066;48.764;9.176;2023-03-03T11:41:25;98568.94;;;8.17;48.24
550;BME280;20066;48.764;9.176;2023-03-03T11:44:01;98577.75;;;9.86;44.56
550;BME280;20066;48.764;9.176;2023-03-03T11:46:35;98572.09;;;9.95;44.27
550;BME280;20066;48.764;9.176;2023-03-03T11:49:08;98562.56;;;10.04;43.80
550;BME280;20066;48.764;9.176;2023-03-03T11:51:46;98559.34;;;9.88;44.27
550;BME280;20066;48.764;9.176;2023-03-03T11:54:21;98557.59;;;10.51;41.87
550;BME280;20066;48.764;9.176;2023-03-03T11:56:53;98554.22;;;11.30;40.12
550;BME280;20066;48.764;9.176;2023-03-03T11:59:52;98555.31;;;11.14;41.12
550;BME280;20066;48.764;9.176;2023-03-03T12:02:42;98548.16;;;13.24;37.04
550;BME280;20066;48.764;9.176;2023-03-03T12:05:18;98546.38;;;12.25;37.49
550;BME280;20066;48.764;9.176;2023-03-03T12:08:01;98544.00;;;12.88;37.37
550;BME280;20066;48.764;9.176;2023-03-03T12:10:35;98540.16;;;12.71;36.86
550;BME280;20066;48.764;9.176;2023-03-03T12:13:12;98540.50;;;13.01;37.04
550;BME280;20066;48.764;9.176;2023-03-03T12:15:51;98532.84;;;11.90;37.94
550;BME280;20066;48.764;9.176;2023-03-03T12:18:33;98532.91;;;12.18;38.62
550;BME280;20066;48.764;9.176;2023-03-03T12:21:17;98533.81;;;11.25;40.68
550;BME280;20066;48.764;9.176;2023-03-03T12:24:01;98537.25;;;10.53;42.11
550;BME280;20066;48.764;9.176;2023-03-03T12:26:39;98532.94;;;9.23;44.68
550;BME280;20066;48.764;9.176;2023-03-03T12:29:22;98537.56;;;11.03;40.45
550;BME280;20066;48.764;9.176;2023-03-03T12:31:54;98530.28;;;9.60;43.17
550;BME280;20066;48.764;9.176;2023-03-03T12:34:35;98533.66;;;10.97;41.16
550;BME280;20066;48.764;9.176;2023-03-03T12:40:07;98518.41;;;9.24;44.15
550;BME280;20066;48.764;9.176;2023-03-03T12:42:42;98525.78;;;10.60;41.44
550;BME280;20066;48.764;9.176;2023-03-03T12:45:29;98528.63;;;10.84;40.66
550;BME280;20066;48.764;9.176;2023-03-03T12:48:00;98525.22;;;10.98;41.11
550;BME280;20066;48.764;9.176;2023-03-03T12:50:40;98514.00;;;10.78;40.97
550;BME280;20066;48.764;9.176;2023-03-03T12:53:20;98524.53;;;11.15;40.26
550;BME280;20066;48.764;9.176;2023-03-03T12:55:56;98513.25;;;10.85;41.03
550;BME280;20066;48.764;9.176;2023-03-03T12:58:38;98530.31;;;11.17;40.82
550;BME280;20066;48.764;9.176;2023-03-03T13:01:21;98521.69;;;11.74;39.46
550;BME280;20066;48.764;9.176;2023-03-03T13:04:00;98517.63;;;11.18;40.07
550;BME280;20066;48.764;9.176;2023-03-03T13:06:34;98513.53;;;11.56;39.30
550;BME280;20066;48.764;9.176;2023-03-03T13:09:18;98517.47;;;9.80;42.93
550;BME280;20066;48.764;9.176;2023-03-03T13:12:03;98514.84;;;10.31;42.21
550;BME280;20066;48.764;9.176;2023-03-03T13:14:42;98517.41;;;10.72;40.58
550;BME280;20066;48.764;9.176;2023-03-03T13:17:20;98514.66;;;10.14;42.86
550;BME280;20066;48.764;9.176;2023-03-03T13:19:53;98521.75;;;10.98;41.11
550;BME280;20066;48.764;9.176;2023-03-03T13:22:32;98513.44;;;11.24;40.33
550;BME280;20066;48.764;9.176;2023-03-03T13:25:26;98493.59;;;11.99;38.81
550;BME280;20066;48.764;9.176;2023-03-03T13:28:02;98510.91;;;11.74;39.61
550;BME280;20066;48.764;9.176;2023-03-03T13:30:38;98513.25;;;11.89;39.21
550;BME280;20066;48.764;9.176;2023-03-03T13:33:13;98506.31;;;12.24;38.18
550;BME280;20066;48.764;9.176;2023-03-03T13:35:48;98502.81;;;11.77;39.14
550;BME280;20066;48.764;9.176;2023-03-03T13:38:19;98499.34;;;12.37;38.49
550;BME280;20066;48.764;9.176;2023-03-03T13:40:51;98511.25;;;11.69;40.39
550;BME280;20066;48.764;9.176;2023-03-03T13:43:29;98497.94;;;13.34;37.66
550;BME280;20066;48.764;9.176;2023-03-03T13:46:05;98499.78;;;14.13;36.12
550;BME280;20066;48.764;9.176;2023-03-03T13:49:00;98496.84;;;14.38;34.94
550;BME280;20066;48.764;9.176;2023-03-03T13:51:38;98501.19;;;14.28;34.98
550;BME280;20066;48.764;9.176;2023-03-03T13:54:17;98498.97;;;14.16;35.01
550;BME280;20066;48.764;9.176;2023-03-03T13:57:10;98501.66;;;14.16;35.51
550;BME280;20066;48.764;9.176;2023-03-03T13:59:49;98494.84;;;13.98;34.87
550;BME280;20066;48.764;9.176;2023-03-03T14:02:38;98491.94;;;14.22;34.63
550;BME280;20066;48.764;9.176;2023-03-03T14:05:14;98484.97;;;14.25;34.41
550;BME280;20066;48.764;9.176;2023-03-03T14:07:50;98483.81;;;14.26;34.94
550;BME280;20066;48.764;9.176;2023-03-03T14:10:23;98485.34;;;14.27;34.87
550;BME280;20066;48.764;9.176;2023-03-03T14:13:01;98486.25;;;12.25;38.46
550;BME280;20066;48.764;9.176;2023-03-03T14:15:33;98480.09;;;12.42;38.17
550;BME280;20066;48.764;9.176;2023-03-03T14:18:15;98473.56;;;11.90;38.10
550;BME280;20066;48.764;9.176;2023-03-03T14:20:50;98473.91;;;11.74;39.32